Time;durP1;ratioP1;P1;durP2;ratioP2;P2;SDS_P1;SDS_P2;PMS_P1;PMS_P2;Temp;Humidity;BMP_temperature;BMP_pressure;BME280_temperature;BME280_humidity;BME280_pressure;Samples;Min_cycle;Max_cycle;Signal;HPM_P1;HPM_P2
2021/07/31 00:00:23;;;;;;;6.95;6.00;;;19.10;1.00;;;;;;5052422;28;20033;-74
2021/07/31 00:02:53;;;;;;;8.90;6.30;;;19.10;1.00;;;;;;5029645;28;20029;-72
2021/07/31 00:05:18;;;;;;;6.60;6.00;;;19.10;1.00;;;;;;5035852;28;20105;-72
2021/07/31 00:07:44;;;;;;;5.88;5.28;;;19.10;1.00;;;;;;5034950;28;20148;-73
2021/07/31 00:10:11;;;;;;;7.43;6.22;;;19.30;1.00;;;;;;5035371;28;20034;-73
2021/07/31 00:12:38;;;;;;;5.55;4.90;;;19.30;1.00;;;;;;5035049;28;20018;-74
2021/07/31 00:15:04;;;;;;;5.93;5.35;;;19.30;1.00;;;;;;5035999;28;20071;-73
2021/07/31 00:17:30;;;;;;;5.30;4.80;;;19.40;1.00;;;;;;5049410;28;20426;-73
2021/07/31 00:19:55;;;;;;;8.05;6.40;;;19.50;1.00;;;;;;5035062;28;20060;-72
2021/07/31 00:22:21;;;;;;;5.25;4.75;;;19.50;1.00;;;;;;5016824;28;20029;-72
2021/07/31 00:24:47;;;;;;;4.70;3.80;;;19.60;1.00;;;;;;5019801;28;20029;-72
2021/07/31 00:27:12;;;;;;;5.78;3.92;;;19.60;99.90;;;;;;5034423;28;20500;-72
2021/07/31 00:29:38;;;;;;;5.18;3.85;;;19.60;99.90;;;;;;5035471;28;20087;-73
2021/07/31 00:32:04;;;;;;;4.00;3.50;;;19.60;99.90;;;;;;5054358;28;20009;-72
2021/07/31 00:34:29;;;;;;;4.90;3.22;;;19.70;99.90;;;;;;5057601;28;20092;-72
2021/07/31 00:36:55;;;;;;;3.50;3.20;;;19.70;99.90;;;;;;5049250;28;20054;-72
2021/07/31 00:39:20;;;;;;;3.40;3.10;;;19.70;99.90;;;;;;5044257;28;20095;-72
2021/07/31 00:41:46;;;;;;;8.70;4.32;;;19.80;99.90;;;;;;5034294;28;20052;-72
2021/07/31 00:44:11;;;;;;;3.05;2.75;;;19.80;99.90;;;;;;5016571;28;20396;-72
2021/07/31 00:46:38;;;;;;;3.65;2.35;;;19.80;99.90;;;;;;5041397;28;20021;-72
2021/07/31 00:49:03;;;;;;;2.67;2.33;;;19.60;99.90;;;;;;5048534;28;20109;-72
2021/07/31 00:51:29;;;;;;;3.50;2.30;;;19.50;99.90;;;;;;5044080;28;20491;-72
2021/07/31 00:53:55;;;;;;;7.95;2.58;;;19.40;99.90;;;;;;5038721;28;20032;-71
2021/07/31 00:56:21;;;;;;;2.85;2.10;;;19.30;99.90;;;;;;5035524;28;20025;-72
2021/07/31 00:58:47;;;;;;;3.78;2.38;;;19.20;99.90;;;;;;5036674;28;20049;-73
2021/07/31 01:01:12;;;;;;;4.47;2.70;;;19.20;99.90;;;;;;5038397;28;20513;-73
2021/07/31 01:03:40;;;;;;;3.38;2.63;;;19.20;99.90;;;;;;5039309;28;20116;-72
2021/07/31 01:06:06;;;;;;;4.65;2.50;;;19.10;99.90;;;;;;5040185;28;20061;-72
2021/07/31 01:08:32;;;;;;;2.47;2.15;;;19.10;99.90;;;;;;5037415;28;20037;-73
2021/07/31 01:10:59;;;;;;;3.00;2.28;;;19.10;99.90;;;;;;5034168;28;20108;-73
2021/07/31 01:13:25;;;;;;;3.28;2.60;;;19.10;99.90;;;;;;5034069;28;20052;-73
2021/07/31 01:16:14;;;;;;;2.13;1.90;;;19.00;99.90;;;;;;5034664;28;20036;-73
2021/07/31 01:18:41;;;;;;;2.63;1.98;;;19.00;99.90;;;;;;5045436;28;20033;-72
2021/07/31 01:21:06;;;;;;;2.67;2.00;;;19.00;99.90;;;;;;5054060;28;20033;-73
2021/07/31 01:23:32;;;;;;;3.22;2.20;;;18.90;99.90;;;;;;5036936;28;20113;-72
2021/07/31 01:25:58;;;;;;;2.58;2.25;;;18.90;99.90;;;;;;5037830;22;20042;-75
2021/07/31 01:28:25;;;;;;;2.85;2.20;;;18.90;99.90;;;;;;5009714;28;20113;-74
2021/07/31 01:30:50;;;;;;;2.45;2.10;;;19.00;99.90;;;;;;5005878;28;20162;-75
2021/07/31 01:33:16;;;;;;;2.60;2.00;;;19.00;99.90;;;;;;5007862;28;20131;-75
2021/07/31 01:35:42;;;;;;;4.70;2.20;;;19.10;99.90;;;;;;5013505;28;20021;-75
2021/07/31 01:38:07;;;;;;;3.83;2.72;;;19.10;99.90;;;;;;5013536;28;20547;-75
2021/07/31 01:40:33;;;;;;;2.38;2.17;;;19.10;99.90;;;;;;5013939;28;20061;-74
2021/07/31 01:42:59;;;;;;;2.72;2.15;;;19.10;99.90;;;;;;5007798;28;20078;-74
2021/07/31 01:45:26;;;;;;;3.05;2.60;;;19.10;99.90;;;;;;5013556;28;20143;-74
2021/07/31 01:47:52;;;;;;;3.00;2.10;;;19.10;99.90;;;;;;4996299;28;20037;-75
2021/07/31 01:50:18;;;;;;;4.25;2.47;;;19.10;99.90;;;;;;5013516;28;20026;-74
2021/07/31 01:52:46;;;;;;;2.58;2.00;;;19.10;99.90;;;;;;5012948;28;20044;-76
2021/07/31 01:55:13;;;;;;;2.53;2.05;;;19.10;99.90;;;;;;4995670;28;20113;-75
2021/07/31 01:57:39;;;;;;;4.38;1.90;;;19.00;99.90;;;;;;4996098;28;20038;-75
2021/07/31 02:00:05;;;;;;;3.53;1.85;;;19.00;99.90;;;;;;5013250;28;20299;-76
2021/07/31 02:02:31;;;;;;;2.53;2.10;;;18.90;99.90;;;;;;5012994;28;20042;-75
2021/07/31 02:04:57;;;;;;;4.13;2.05;;;18.90;99.90;;;;;;5001130;28;20542;-76
2021/07/31 02:07:22;;;;;;;2.45;1.90;;;18.80;99.90;;;;;;4993622;28;20413;-75
2021/07/31 02:09:48;;;;;;;4.05;2.25;;;18.70;99.90;;;;;;4993960;28;20101;-73
2021/07/31 02:12:14;;;;;;;3.30;1.88;;;18.60;99.90;;;;;;5006734;28;20145;-75
2021/07/31 02:14:40;;;;;;;4.30;1.83;;;18.50;99.90;;;;;;5001109;28;20070;-75
2021/07/31 02:17:05;;;;;;;2.70;1.60;;;18.50;99.90;;;;;;4999834;28;20031;-74
2021/07/31 02:19:31;;;;;;;5.97;3.10;;;18.50;99.90;;;;;;5007893;28;20021;-74
2021/07/31 02:21:58;;;;;;;3.53;1.70;;;18.50;99.90;;;;;;5005368;28;20026;-74
2021/07/31 02:24:24;;;;;;;2.22;1.30;;;18.50;99.90;;;;;;4997352;28;20529;-75
2021/07/31 02:26:49;;;;;;;3.53;1.50;;;18.40;99.90;;;;;;5004246;28;20097;-76
2021/07/31 02:29:15;;;;;;;3.28;1.48;;;18.30;99.90;;;;;;5009673;28;20053;-74
2021/07/31 02:31:41;;;;;;;4.22;1.60;;;18.20;99.90;;;;;;4995607;28;20121;-75
2021/07/31 02:34:07;;;;;;;4.45;1.73;;;18.10;99.90;;;;;;5003931;28;20045;-75
2021/07/31 02:36:32;;;;;;;5.07;1.70;;;18.00;99.90;;;;;;5004256;28;20092;-75
2021/07/31 02:38:58;;;;;;;3.53;2.10;;;17.90;99.90;;;;;;5000075;28;20069;-75
2021/07/31 02:41:23;;;;;;;2.00;1.33;;;17.80;99.90;;;;;;4993092;28;20478;-74
2021/07/31 02:43:49;;;;;;;5.32;1.98;;;17.80;99.90;;;;;;4992998;28;20029;-74
2021/07/31 02:46:14;;;;;;;3.30;1.52;;;17.70;99.90;;;;;;4999173;28;20037;-74
2021/07/31 02:48:40;;;;;;;3.15;1.50;;;17.80;99.90;;;;;;4993922;28;20030;-75
2021/07/31 02:51:09;;;;;;;3.63;1.40;;;17.80;99.90;;;;;;5006081;28;20034;-75
2021/07/31 02:53:35;;;;;;;2.08;1.33;;;17.70;99.90;;;;;;4997870;28;20554;-74
2021/07/31 02:56:01;;;;;;;3.05;1.80;;;17.60;99.90;;;;;;5002289;28;20076;-74
2021/07/31 02:58:26;;;;;;;4.35;1.30;;;17.60;92.00;;;;;;4993846;28;20582;-74
2021/07/31 03:00:52;;;;;;;2.88;1.65;;;17.60;1.00;;;;;;4993607;28;20030;-73
2021/07/31 03:03:18;;;;;;;6.45;1.25;;;17.60;41.00;;;;;;5001621;28;20466;-74
2021/07/31 03:05:53;;;;;;;3.50;1.40;;;17.50;37.10;;;;;;5002396;28;20018;-74
2021/07/31 03:08:18;;;;;;;3.58;1.30;;;17.50;1.00;;;;;;4998012;28;20030;-74
2021/07/31 03:10:44;;;;;;;1.83;1.13;;;17.50;49.30;;;;;;4993039;28;20528;-74
2021/07/31 03:13:09;;;;;;;7.20;1.42;;;17.40;1.00;;;;;;5000858;28;20037;-74
2021/07/31 03:15:35;;;;;;;4.63;1.00;;;17.40;1.00;;;;;;5006121;28;20049;-74
2021/07/31 03:18:01;;;;;;;6.75;1.25;;;17.40;1.00;;;;;;5005252;28;20034;-75
2021/07/31 03:20:26;;;;;;;2.22;0.90;;;17.30;65.50;;;;;;5001165;28;20054;-74
2021/07/31 03:22:52;;;;;;;4.40;1.13;;;17.30;59.50;;;;;;5010441;28;20033;-74
2021/07/31 03:25:17;;;;;;;4.88;1.00;;;17.30;24.40;;;;;;4997085;28;20038;-74
2021/07/31 03:27:43;;;;;;;3.20;1.20;;;17.30;84.90;;;;;;4999438;28;20411;-74
2021/07/31 03:30:09;;;;;;;2.22;1.30;;;17.20;1.00;;;;;;4992371;28;20084;-74
2021/07/31 03:32:35;;;;;;;5.60;1.50;;;17.10;99.90;;;;;;5004018;28;20041;-73
2021/07/31 03:35:01;;;;;;;4.18;1.25;;;17.20;1.00;;;;;;5005423;28;20033;-74
2021/07/31 03:37:27;;;;;;;3.47;1.98;;;17.10;1.00;;;;;;5006344;28;20044;-74
2021/07/31 03:39:52;;;;;;;4.43;1.40;;;17.00;1.00;;;;;;5014964;28;20026;-74
2021/07/31 03:42:18;;;;;;;5.57;1.35;;;17.00;1.00;;;;;;5014668;28;20030;-73
2021/07/31 03:44:43;;;;;;;3.80;1.42;;;17.00;1.00;;;;;;5015407;28;20443;-74
2021/07/31 03:47:09;;;;;;;3.50;1.63;;;17.00;99.90;;;;;;5015035;28;20045;-74
2021/07/31 03:49:34;;;;;;;3.13;1.48;;;16.90;99.90;;;;;;5014563;28;20026;-74
2021/07/31 03:52:00;;;;;;;7.72;1.88;;;16.90;99.90;;;;;;4999404;28;20056;-74
2021/07/31 03:54:25;;;;;;;2.28;1.20;;;16.90;99.90;;;;;;4982747;28;20030;-73
2021/07/31 03:56:51;;;;;;;5.13;1.60;;;16.80;99.90;;;;;;5000200;28;20057;-74
2021/07/31 03:59:16;;;;;;;8.20;1.65;;;16.70;99.90;;;;;;4999933;28;20034;-74
2021/07/31 04:01:42;;;;;;;3.17;1.55;;;16.70;99.90;;;;;;5014577;28;20097;-73
2021/07/31 04:04:08;;;;;;;5.38;2.03;;;16.80;99.90;;;;;;4997604;28;20069;-76
2021/07/31 04:06:33;;;;;;;9.57;1.70;;;16.80;99.90;;;;;;5013115;28;20073;-75
2021/07/31 04:08:59;;;;;;;2.20;1.27;;;16.80;99.90;;;;;;5014817;28;20395;-75
2021/07/31 04:11:25;;;;;;;3.92;2.00;;;16.90;99.90;;;;;;4998747;28;20085;-75
2021/07/31 04:13:50;;;;;;;3.85;1.63;;;16.90;99.90;;;;;;4987206;28;20034;-74
2021/07/31 04:16:16;;;;;;;2.60;2.08;;;16.90;99.90;;;;;;4995993;28;20026;-74
2021/07/31 04:18:41;;;;;;;4.82;2.22;;;16.90;99.90;;;;;;4996971;28;20076;-74
2021/07/31 04:21:08;;;;;;;4.50;1.83;;;16.90;99.90;;;;;;5014263;28;20029;-74
2021/07/31 04:23:35;;;;;;;3.40;1.85;;;17.00;99.90;;;;;;4996480;28;20026;-74
2021/07/31 04:26:15;;;;;;;5.32;1.42;;;17.00;99.90;;;;;;4997573;28;20133;-74
2021/07/31 04:28:42;;;;;;;3.88;1.17;;;17.00;99.90;;;;;;4988491;28;20034;-73
2021/07/31 04:31:12;;;;;;;3.38;1.50;;;17.10;99.90;;;;;;5002992;28;20034;-74
2021/07/31 04:33:38;;;;;;;4.18;1.90;;;17.20;99.90;;;;;;4990895;28;20022;-74
2021/07/31 04:36:04;;;;;;;3.53;1.60;;;17.30;99.90;;;;;;4980890;28;20035;-75
2021/07/31 04:38:30;;;;;;;5.05;1.52;;;17.30;86.10;;;;;;4995636;28;20109;-75
2021/07/31 04:40:56;;;;;;;3.80;1.60;;;17.30;61.50;;;;;;4979621;28;20157;-75
2021/07/31 04:43:22;;;;;;;2.85;2.25;;;17.30;64.40;;;;;;4995364;28;20041;-73
2021/07/31 04:45:47;;;;;;;5.80;1.98;;;17.40;14.30;;;;;;5001935;28;20022;-74
2021/07/31 04:48:13;;;;;;;3.92;1.75;;;17.50;1.00;;;;;;5002653;28;20494;-74
2021/07/31 04:50:39;;;;;;;6.15;1.80;;;17.60;1.00;;;;;;4994993;28;20418;-73
2021/07/31 04:53:04;;;;;;;4.18;2.28;;;17.60;1.00;;;;;;4977562;28;20529;-74
2021/07/31 04:55:30;;;;;;;3.10;1.77;;;17.60;1.00;;;;;;4994660;28;20035;-74
2021/07/31 04:57:55;;;;;;;6.05;1.55;;;17.70;1.00;;;;;;4994819;28;20033;-74
2021/07/31 05:00:21;;;;;;;4.85;1.45;;;18.10;1.00;;;;;;4983606;28;20043;-74
2021/07/31 05:02:46;;;;;;;4.03;1.10;;;18.20;99.90;;;;;;4984624;28;20080;-74
2021/07/31 05:05:12;;;;;;;5.72;1.80;;;18.30;99.90;;;;;;4994912;28;20034;-74
2021/07/31 05:07:37;;;;;;;3.45;1.20;;;18.60;1.00;;;;;;4998833;28;20038;-74
2021/07/31 05:10:04;;;;;;;4.13;1.35;;;19.10;99.90;;;;;;5010824;28;20041;-72
2021/07/31 05:12:29;;;;;;;4.15;1.40;;;19.80;99.90;;;;;;5011599;28;20033;-74
2021/07/31 05:14:55;;;;;;;1.98;1.20;;;20.30;99.90;;;;;;5022699;28;20018;-74
2021/07/31 05:17:20;;;;;;;14.13;2.65;;;20.60;99.90;;;;;;5018293;28;20050;-74
2021/07/31 05:19:47;;;;;;;2.25;1.00;;;20.80;99.90;;;;;;5007903;28;20558;-74
2021/07/31 05:22:15;;;;;;;7.15;1.92;;;21.00;99.90;;;;;;5001523;28;20041;-75
2021/07/31 05:24:41;;;;;;;2.33;1.35;;;21.10;99.90;;;;;;5009122;28;20034;-75
2021/07/31 05:27:07;;;;;;;3.65;1.52;;;21.70;99.90;;;;;;5005163;28;20486;-74
2021/07/31 05:29:33;;;;;;;5.25;1.75;;;21.90;99.90;;;;;;5004543;28;20034;-74
2021/07/31 05:31:59;;;;;;;5.18;1.77;;;22.10;99.90;;;;;;4983548;28;20506;-74
2021/07/31 05:34:24;;;;;;;4.53;1.17;;;22.00;99.90;;;;;;4998593;28;20037;-74
2021/07/31 05:36:50;;;;;;;3.35;1.23;;;22.20;99.90;;;;;;5000545;28;20112;-74
2021/07/31 05:39:15;;;;;;;3.25;0.80;;;22.20;99.90;;;;;;5003501;28;20095;-75
2021/07/31 05:41:41;;;;;;;6.50;1.67;;;22.10;99.90;;;;;;4994485;28;20033;-75
2021/07/31 05:44:07;;;;;;;1.98;1.30;;;22.30;99.90;;;;;;5009262;28;20493;-75
2021/07/31 05:46:32;;;;;;;2.50;1.10;;;22.40;99.90;;;;;;4994135;28;20433;-74
2021/07/31 05:48:58;;;;;;;2.25;0.93;;;22.60;99.90;;;;;;5000660;28;20101;-74
2021/07/31 05:51:24;;;;;;;5.30;0.80;;;22.70;99.90;;;;;;4995510;28;20156;-76
2021/07/31 05:53:50;;;;;;;3.30;1.02;;;22.80;99.90;;;;;;5005577;28;20462;-76
2021/07/31 05:56:15;;;;;;;1.55;0.80;;;22.60;99.90;;;;;;5012702;28;20545;-75
2021/07/31 05:58:41;;;;;;;4.47;1.40;;;22.60;99.90;;;;;;5005592;28;20057;-76
2021/07/31 06:01:07;;;;;;;3.00;0.80;;;22.90;99.90;;;;;;5005029;28;20072;-74
2021/07/31 06:03:34;;;;;;;2.40;0.88;;;22.80;99.80;;;;;;4976161;28;20080;-75
2021/07/31 06:06:00;;;;;;;2.55;1.00;;;22.80;99.90;;;;;;4997888;28;20430;-74
2021/07/31 06:08:26;;;;;;;4.57;1.05;;;22.80;99.70;;;;;;4995094;28;20080;-74
2021/07/31 06:11:07;;;;;;;5.20;1.40;;;22.80;99.50;;;;;;5012722;28;20105;-76
2021/07/31 06:13:33;;;;;;;1.67;0.80;;;22.80;99.60;;;;;;5000803;28;20057;-76
2021/07/31 06:15:58;;;;;;;2.03;1.35;;;23.00;99.40;;;;;;4995296;28;20034;-75
2021/07/31 06:18:24;;;;;;;2.72;0.80;;;22.60;99.40;;;;;;5013381;28;20029;-75
2021/07/31 06:20:51;;;;;;;2.83;1.38;;;22.60;99.90;;;;;;4996961;28;20114;-75
2021/07/31 06:23:17;;;;;;;1.45;1.10;;;22.20;99.90;;;;;;4996213;28;20033;-76
2021/07/31 06:25:43;;;;;;;3.60;1.45;;;21.60;99.90;;;;;;4997033;28;20169;-75
2021/07/31 06:28:09;;;;;;;2.05;0.95;;;21.40;99.90;;;;;;5016385;28;20394;-74
2021/07/31 06:30:36;;;;;;;5.45;1.10;;;21.20;99.90;;;;;;5017001;28;20030;-74
2021/07/31 06:33:02;;;;;;;3.95;1.60;;;20.90;99.90;;;;;;5014498;28;20027;-73
2021/07/31 06:35:27;;;;;;;4.50;1.10;;;20.80;99.90;;;;;;4997176;28;20072;-75
2021/07/31 06:37:53;;;;;;;1.60;1.02;;;20.80;99.90;;;;;;5003803;28;20018;-74
2021/07/31 06:40:19;;;;;;;3.10;1.40;;;20.50;99.90;;;;;;5008504;28;20478;-75
2021/07/31 06:42:44;;;;;;;2.83;1.02;;;20.50;99.90;;;;;;5009263;28;20044;-74
2021/07/31 06:45:10;;;;;;;3.97;1.40;;;20.60;99.90;;;;;;4992242;28;20038;-74
2021/07/31 06:47:36;;;;;;;3.08;1.38;;;20.80;99.90;;;;;;4999960;28;20040;-73
2021/07/31 06:50:02;;;;;;;1.00;0.80;;;20.80;99.90;;;;;;4994096;28;20486;-75
2021/07/31 06:52:28;;;;;;;2.35;0.98;;;20.80;99.90;;;;;;4975866;28;20061;-74
2021/07/31 06:54:53;;;;;;;5.25;1.52;;;20.90;99.90;;;;;;5009924;28;20112;-74
2021/07/31 06:57:19;;;;;;;10.70;1.30;;;20.90;99.90;;;;;;5010502;28;20033;-74
2021/07/31 06:59:45;;;;;;;2.08;0.98;;;21.00;99.90;;;;;;5007282;28;20033;-74
2021/07/31 07:02:10;;;;;;;3.03;1.33;;;21.00;99.90;;;;;;5011904;28;20033;-74
2021/07/31 07:04:36;;;;;;;1.95;1.23;;;21.00;99.90;;;;;;4993047;28;20022;-74
2021/07/31 07:07:01;;;;;;;2.25;1.10;;;21.00;99.90;;;;;;5000847;28;20092;-75
2021/07/31 07:09:27;;;;;;;2.63;0.93;;;21.20;99.90;;;;;;4993455;28;20035;-75
2021/07/31 07:11:53;;;;;;;2.00;0.98;;;21.10;99.90;;;;;;4975275;28;20294;-75
2021/07/31 07:14:18;;;;;;;4.13;1.10;;;21.10;99.90;;;;;;4993461;28;20393;-74
2021/07/31 07:16:44;;;;;;;4.07;1.48;;;21.20;99.90;;;;;;4999888;28;20030;-75
2021/07/31 07:19:09;;;;;;;7.20;1.40;;;21.20;99.90;;;;;;5004326;28;20030;-73
2021/07/31 07:21:35;;;;;;;5.50;1.35;;;21.20;99.90;;;;;;4993431;28;20029;-73
2021/07/31 07:26:26;;;;;;;6.50;1.50;;;21.10;99.90;;;;;;5048185;22;20064;-76
2021/07/31 07:28:51;;;;;;;3.55;1.00;;;21.20;99.90;;;;;;5046135;28;20041;-77
2021/07/31 07:31:17;;;;;;;2.20;1.00;;;21.30;99.90;;;;;;5037447;28;20037;-77
2021/07/31 07:33:43;;;;;;;9.77;1.10;;;21.20;99.90;;;;;;5021187;28;20030;-75
2021/07/31 07:36:17;;;;;;;5.07;1.13;;;21.40;99.90;;;;;;5030833;28;20038;-76
2021/07/31 07:38:44;;;;;;;1.45;0.80;;;21.50;99.90;;;;;;5047835;28;20032;-76
2021/07/31 07:41:11;;;;;;;4.40;1.58;;;21.50;99.90;;;;;;5023319;28;20044;-75
2021/07/31 07:43:37;;;;;;;4.88;0.95;;;21.60;99.90;;;;;;5014081;28;20061;-75
2021/07/31 07:46:03;;;;;;;3.22;0.98;;;21.50;99.90;;;;;;4996244;28;20026;-76
2021/07/31 07:48:28;;;;;;;4.50;1.20;;;21.30;99.90;;;;;;5011283;28;20026;-76
2021/07/31 07:50:54;;;;;;;3.47;1.48;;;21.60;99.90;;;;;;5029419;28;20512;-76
2021/07/31 07:53:20;;;;;;;4.03;1.10;;;21.70;99.90;;;;;;5034815;28;20021;-76
2021/07/31 07:55:45;;;;;;;2.25;0.90;;;21.80;99.90;;;;;;5008672;28;20038;-75
2021/07/31 07:58:11;;;;;;;7.05;5.72;;;21.50;99.90;;;;;;5031392;28;20021;-75
2021/07/31 08:00:37;;;;;;;3.45;1.33;;;21.50;99.90;;;;;;5023337;28;20033;-77
2021/07/31 08:03:05;;;;;;;4.95;1.88;;;21.50;99.90;;;;;;5013927;28;20040;-76
2021/07/31 08:05:30;;;;;;;5.20;1.38;;;21.60;99.90;;;;;;5024367;28;20145;-76
2021/07/31 08:07:56;;;;;;;6.20;1.17;;;21.80;99.90;;;;;;5026589;28;20112;-76
2021/07/31 08:10:21;;;;;;;2.47;0.90;;;21.80;99.90;;;;;;5030706;28;20042;-76
2021/07/31 08:12:47;;;;;;;1.75;1.08;;;21.70;99.90;;;;;;5013596;28;20022;-75
2021/07/31 08:15:13;;;;;;;2.92;1.40;;;22.10;99.90;;;;;;5030041;28;20068;-75
2021/07/31 08:17:38;;;;;;;2.25;0.80;;;22.10;99.70;;;;;;5011057;28;20481;-75
2021/07/31 08:20:05;;;;;;;2.20;1.02;;;22.30;99.00;;;;;;5013785;28;20120;-78
2021/07/31 08:22:32;;;;;;;2.42;1.10;;;22.50;99.40;;;;;;5022183;28;20018;-78
2021/07/31 08:24:58;;;;;;;3.53;1.00;;;22.60;99.30;;;;;;5020780;28;20105;-76
2021/07/31 08:27:23;;;;;;;2.47;1.00;;;22.80;99.00;;;;;;5023416;28;20072;-77
2021/07/31 08:29:50;;;;;;;3.33;1.20;;;22.90;98.50;;;;;;5015384;28;20029;-77
2021/07/31 08:32:16;;;;;;;3.38;0.88;;;23.00;98.50;;;;;;5030340;28;20082;-77
2021/07/31 08:34:41;;;;;;;5.65;1.67;;;23.30;98.10;;;;;;5032688;28;20053;-77
2021/07/31 08:37:07;;;;;;;2.95;1.10;;;23.30;97.40;;;;;;5026102;28;20032;-77
2021/07/31 08:39:32;;;;;;;2.95;1.38;;;23.10;97.50;;;;;;5022568;28;20020;-78
2021/07/31 08:41:58;;;;;;;4.78;0.90;;;23.00;97.80;;;;;;5042105;28;20017;-78
2021/07/31 08:44:25;;;;;;;2.03;0.77;;;23.20;97.70;;;;;;5047801;28;20006;-77
2021/07/31 08:46:51;;;;;;;3.13;1.00;;;23.40;98.00;;;;;;5036416;28;20018;-77
2021/07/31 08:49:22;;;;;;;2.63;0.90;;;23.40;97.80;;;;;;5041702;28;20034;-77
2021/07/31 08:51:48;;;;;;;2.28;1.38;;;23.20;97.80;;;;;;5046979;28;20045;-77
2021/07/31 08:54:13;;;;;;;3.60;1.02;;;23.20;97.80;;;;;;5022821;28;20030;-77
2021/07/31 08:56:42;;;;;;;2.03;0.90;;;23.50;97.80;;;;;;5047724;28;20033;-78
2021/07/31 08:59:08;;;;;;;2.15;0.80;;;23.10;97.80;;;;;;5022630;28;20028;-77
2021/07/31 09:01:34;;;;;;;2.58;1.20;;;23.20;98.10;;;;;;5021302;28;20033;-77
2021/07/31 09:04:11;;;;;;;2.55;1.13;;;23.50;97.60;;;;;;5050687;28;20032;-78
2021/07/31 09:06:36;;;;;;;2.88;0.95;;;23.70;97.10;;;;;;5019563;28;20029;-77
2021/07/31 09:09:02;;;;;;;2.72;0.90;;;23.80;96.90;;;;;;5040387;28;20094;-78
2021/07/31 09:11:29;;;;;;;4.53;1.73;;;23.40;96.80;;;;;;5032224;28;20048;-79
2021/07/31 09:14:14;;;;;;;3.95;1.08;;;22.90;98.10;;;;;;5054522;28;20033;-77
2021/07/31 09:16:41;;;;;;;1.50;0.70;;;22.90;97.80;;;;;;5043678;28;20017;-78
2021/07/31 09:19:08;;;;;;;2.30;0.93;;;23.10;97.10;;;;;;5037853;28;20018;-77
2021/07/31 09:21:34;;;;;;;2.28;1.00;;;23.40;96.40;;;;;;5012283;28;20038;-76
2021/07/31 09:24:00;;;;;;;5.90;1.20;;;23.40;96.90;;;;;;5047759;28;20111;-77
2021/07/31 09:26:26;;;;;;;3.95;0.98;;;23.60;96.80;;;;;;5052752;28;20025;-77
2021/07/31 09:29:06;;;;;;;2.45;1.10;;;24.00;96.90;;;;;;5021643;28;20055;-77
2021/07/31 09:31:32;;;;;;;2.47;1.05;;;24.40;96.70;;;;;;5031711;28;20033;-77
2021/07/31 09:34:02;;;;;;;1.95;0.90;;;24.70;95.50;;;;;;5053807;28;20115;-77
2021/07/31 09:36:41;;;;;;;1.35;0.90;;;24.60;95.60;;;;;;5049367;28;20093;-78
2021/07/31 09:39:08;;;;;;;3.28;1.45;;;24.80;95.30;;;;;;5010316;28;20032;-78
2021/07/31 09:41:36;;;;;;;3.15;1.10;;;24.40;95.60;;;;;;5005363;28;20026;-77
2021/07/31 09:44:09;;;;;;;1.55;1.23;;;24.30;94.90;;;;;;5028211;28;20017;-77
2021/07/31 09:46:48;;;;;;;2.45;1.15;;;24.40;96.40;;;;;;5008333;28;20653;-78
2021/07/31 09:49:14;;;;;;;3.70;0.80;;;24.60;95.30;;;;;;5024175;28;20076;-76
2021/07/31 09:51:45;;;;;;;3.65;1.30;;;24.40;95.50;;;;;;5033349;28;20044;-78
2021/07/31 09:54:13;;;;;;;2.55;1.17;;;24.40;95.70;;;;;;5025000;28;20048;-78
2021/07/31 09:56:50;;;;;;;3.08;1.20;;;24.50;95.00;;;;;;5030462;28;20030;-76
2021/07/31 09:59:17;;;;;;;1.60;0.73;;;24.50;93.80;;;;;;5023499;28;20041;-78
2021/07/31 10:01:47;;;;;;;4.32;1.90;;;24.10;94.40;;;;;;5019934;28;20030;-77
2021/07/31 10:04:13;;;;;;;5.10;2.13;;;24.20;95.10;;;;;;5008703;28;20378;-79
2021/07/31 10:06:39;;;;;;;3.38;1.08;;;24.50;94.20;;;;;;5036914;28;20047;-78
2021/07/31 10:09:06;;;;;;;2.17;1.05;;;24.70;93.50;;;;;;5017500;28;20119;-78
2021/07/31 10:11:40;;;;;;;3.67;1.05;;;24.70;93.00;;;;;;5019369;28;20037;-78
2021/07/31 10:14:08;;;;;;;2.63;1.00;;;24.80;93.00;;;;;;5040440;28;20085;-78
2021/07/31 10:16:36;;;;;;;2.88;1.00;;;24.90;92.90;;;;;;5002799;28;20515;-77
2021/07/31 10:19:09;;;;;;;1.42;0.80;;;24.80;92.10;;;;;;5018673;28;20089;-78
2021/07/31 10:21:42;;;;;;;2.35;1.08;;;24.90;92.40;;;;;;5019117;28;20056;-79
2021/07/31 10:24:08;;;;;;;2.28;1.20;;;25.00;92.30;;;;;;5000972;28;20026;-78
2021/07/31 10:26:36;;;;;;;2.58;0.98;;;25.00;92.50;;;;;;5031208;28;20037;-78
2021/07/31 10:29:38;;;;;;;3.83;1.00;;;24.20;91.10;;;;;;5007831;28;20037;-77
2021/07/31 10:32:41;;;;;;;3.80;1.10;;;23.80;91.40;;;;;;4993333;28;20490;-78
2021/07/31 10:35:28;;;;;;;3.30;1.00;;;23.60;92.40;;;;;;5012360;28;20528;-78
2021/07/31 10:37:58;;;;;;;2.65;0.90;;;23.70;92.00;;;;;;5003222;28;20022;-77
2021/07/31 10:40:30;;;;;;;2.53;0.80;;;23.40;92.30;;;;;;5011868;28;20381;-78
2021/07/31 10:42:55;;;;;;;2.45;1.20;;;23.50;92.00;;;;;;5039972;28;20037;-77
2021/07/31 10:45:22;;;;;;;3.33;1.50;;;23.20;91.90;;;;;;5022155;28;20037;-77
2021/07/31 10:47:51;;;;;;;2.67;0.93;;;23.40;92.70;;;;;;5003635;28;20413;-77
2021/07/31 10:50:23;;;;;;;3.67;0.88;;;23.90;92.20;;;;;;5016686;28;20037;-77
2021/07/31 10:53:11;;;;;;;1.52;0.80;;;24.00;91.10;;;;;;5014876;28;20034;-77
2021/07/31 10:55:36;;;;;;;1.05;0.77;;;24.10;90.40;;;;;;5017426;28;20018;-77
2021/07/31 10:58:05;;;;;;;2.83;1.65;;;24.20;91.40;;;;;;5016527;28;20101;-77
2021/07/31 11:00:35;;;;;;;1.52;0.88;;;24.10;90.80;;;;;;5019955;28;20022;-78
2021/07/31 11:03:24;;;;;;;2.25;0.98;;;24.20;90.90;;;;;;5000357;28;20026;-77
2021/07/31 11:05:58;;;;;;;4.78;0.95;;;23.80;90.90;;;;;;5024953;28;20063;-77
2021/07/31 11:08:33;;;;;;;2.33;0.98;;;23.60;90.20;;;;;;5020805;28;20028;-78
2021/07/31 11:11:19;;;;;;;3.03;0.90;;;23.60;91.00;;;;;;5018343;28;20030;-78
2021/07/31 11:13:51;;;;;;;1.88;0.90;;;23.70;90.80;;;;;;5006846;28;20396;-77
2021/07/31 11:16:21;;;;;;;1.95;0.98;;;24.00;90.50;;;;;;5034192;28;20065;-78
2021/07/31 11:18:52;;;;;;;1.95;1.00;;;24.00;89.70;;;;;;5036122;28;20024;-77
2021/07/31 11:21:22;;;;;;;2.63;1.10;;;23.40;89.80;;;;;;5037363;28;20056;-78
2021/07/31 11:23:50;;;;;;;1.00;0.90;;;23.40;90.30;;;;;;5023135;28;20033;-78
2021/07/31 11:26:49;;;;;;;2.90;1.33;;;23.40;90.40;;;;;;5017838;28;20069;-78
2021/07/31 11:29:26;;;;;;;3.15;1.00;;;23.10;91.10;;;;;;5004957;28;20036;-78
2021/07/31 11:32:12;;;;;;;2.55;1.10;;;23.10;91.10;;;;;;5020882;28;20564;-77
2021/07/31 11:34:39;;;;;;;2.92;1.05;;;23.20;90.70;;;;;;5030795;28;20084;-77
2021/07/31 11:37:06;;;;;;;2.13;0.95;;;23.60;90.60;;;;;;4998556;28;20069;-77
2021/07/31 11:39:38;;;;;;;2.17;1.13;;;24.10;91.10;;;;;;5000706;28;20529;-77
2021/07/31 11:42:05;;;;;;;3.53;1.17;;;24.20;90.30;;;;;;5018326;28;20033;-78
2021/07/31 11:44:38;;;;;;;1.67;0.88;;;23.90;90.20;;;;;;5019902;28;20156;-78
2021/07/31 11:47:07;;;;;;;1.75;1.10;;;24.00;90.50;;;;;;5034967;28;20030;-77
2021/07/31 11:49:35;;;;;;;3.13;0.95;;;24.00;90.70;;;;;;5031692;28;20091;-78
2021/07/31 11:52:05;;;;;;;2.83;1.88;;;24.40;90.80;;;;;;5017210;28;20036;-78
2021/07/31 11:54:33;;;;;;;1.13;0.82;;;24.30;90.90;;;;;;5017063;28;20022;-77
2021/07/31 11:57:01;;;;;;;2.50;1.30;;;24.40;89.10;;;;;;5024142;28;20113;-78
2021/07/31 11:59:37;;;;;;;3.67;1.95;;;24.40;90.00;;;;;;5026033;28;20034;-78
2021/07/31 12:02:06;;;;;;;1.75;1.10;;;24.30;88.20;;;;;;5024243;28;20056;-78
2021/07/31 12:04:48;;;;;;;2.00;0.82;;;24.40;90.00;;;;;;5034636;28;20080;-77
2021/07/31 12:07:23;;;;;;;2.63;1.52;;;24.20;88.40;;;;;;5006515;28;20290;-77
2021/07/31 12:10:13;;;;;;;1.92;0.93;;;23.90;88.40;;;;;;5024841;28;20034;-77
2021/07/31 12:12:44;;;;;;;2.25;0.82;;;23.90;90.00;;;;;;5023692;28;20076;-78
2021/07/31 12:15:26;;;;;;;2.35;1.00;;;24.10;89.70;;;;;;5016557;28;20033;-78
2021/07/31 12:17:56;;;;;;;2.28;1.13;;;24.70;89.20;;;;;;5022225;28;20022;-77
2021/07/31 12:20:31;;;;;;;4.60;1.45;;;25.10;88.60;;;;;;5024041;28;20331;-77
2021/07/31 12:22:57;;;;;;;1.52;1.10;;;24.80;87.30;;;;;;5040930;28;20017;-77
2021/07/31 12:25:23;;;;;;;1.58;0.80;;;24.60;88.30;;;;;;5006794;28;20033;-79
2021/07/31 12:28:10;;;;;;;1.80;1.30;;;24.40;88.70;;;;;;5008266;28;20049;-78
2021/07/31 12:30:37;;;;;;;2.60;0.90;;;25.30;88.30;;;;;;5015672;28;20462;-78
2021/07/31 12:33:23;;;;;;;3.85;1.27;;;25.70;86.70;;;;;;5004077;28;20026;-78
2021/07/31 12:36:00;;;;;;;1.40;0.80;;;25.30;86.90;;;;;;5006007;28;20049;-78
2021/07/31 12:38:28;;;;;;;4.88;1.05;;;25.20;85.90;;;;;;5018047;28;20085;-77
2021/07/31 12:40:54;;;;;;;2.00;1.00;;;24.90;85.80;;;;;;5033003;28;20028;-77
2021/07/31 12:43:21;;;;;;;3.80;1.63;;;25.00;89.10;;;;;;5013754;28;20051;-77
2021/07/31 12:45:47;;;;;;;2.80;1.38;;;25.20;87.80;;;;;;5012855;28;20041;-79
2021/07/31 12:48:14;;;;;;;3.72;1.40;;;25.40;88.70;;;;;;5002783;28;20230;-77
2021/07/31 12:50:42;;;;;;;1.65;1.08;;;25.40;86.20;;;;;;5002450;28;20032;-77
2021/07/31 12:53:08;;;;;;;1.77;0.95;;;25.20;85.70;;;;;;5005857;28;20030;-77